sensor_id;sensor_type;location;lat;lon;timestamp;P1;durP1;ratioP1;P2;durP2;ratioP2
4895;SDS011;2463;49.948;8.472;2022-10-16T00:00:54;91.63;;;6.10;;
4895;SDS011;2463;49.948;8.472;2022-10-16T00:03:21;96.75;;;6.45;;
4895;SDS011;2463;49.948;8.472;2022-10-16T00:05:54;97.57;;;6.53;;
4895;SDS011;2463;49.948;8.472;2022-10-16T00:08:26;93.38;;;6.00;;
4895;SDS011;2463;49.948;8.472;2022-10-16T00:10:58;95.85;;;6.10;;
4895;SDS011;2463;49.948;8.472;2022-10-16T00:13:30;93.68;;;6.65;;
4895;SDS011;2463;49.948;8.472;2022-10-16T00:15:58;99.40;;;6.65;;
4895;SDS011;2463;49.948;8.472;2022-10-16T00:18:26;96.00;;;6.18;;
4895;SDS011;2463;49.948;8.472;2022-10-16T00:20:53;92.78;;;5.65;;
4895;SDS011;2463;49.948;8.472;2022-10-16T00:23:25;93.82;;;6.10;;
4895;SDS011;2463;49.948;8.472;2022-10-16T00:25:59;92.82;;;6.50;;
4895;SDS011;2463;49.948;8.472;2022-10-16T00:28:29;95.22;;;6.38;;
4895;SDS011;2463;49.948;8.472;2022-10-16T00:30:56;94.20;;;5.90;;
4895;SDS011;2463;49.948;8.472;2022-10-16T00:33:23;92.28;;;5.90;;
4895;SDS011;2463;49.948;8.472;2022-10-16T00:35:50;91.78;;;6.07;;
4895;SDS011;2463;49.948;8.472;2022-10-16T00:38:17;95.00;;;6.40;;
4895;SDS011;2463;49.948;8.472;2022-10-16T00:40:43;94.15;;;6.25;;
4895;SDS011;2463;49.948;8.472;2022-10-16T00:43:14;91.00;;;5.65;;
4895;SDS011;2463;49.948;8.472;2022-10-16T00:46:00;90.93;;;5.70;;
4895;SDS011;2463;49.948;8.472;2022-10-16T00:48:29;92.03;;;5.32;;
4895;SDS011;2463;49.948;8.472;2022-10-16T00:50:56;90.57;;;5.45;;
4895;SDS011;2463;49.948;8.472;2022-10-16T00:53:24;92.57;;;5.53;;
4895;SDS011;2463;49.948;8.472;2022-10-16T00:55:52;91.32;;;5.25;;
4895;SDS011;2463;49.948;8.472;2022-10-16T00:58:19;99.32;;;5.57;;
4895;SDS011;2463;49.948;8.472;2022-10-16T01:00:47;94.32;;;6.00;;
4895;SDS011;2463;49.948;8.472;2022-10-16T01:08:49;91.40;;;4.75;;
4895;SDS011;2463;49.948;8.472;2022-10-16T01:14:45;90.53;;;5.22;;
4895;SDS011;2463;49.948;8.472;2022-10-16T01:17:27;92.95;;;5.15;;
4895;SDS011;2463;49.948;8.472;2022-10-16T01:22:43;93.60;;;5.00;;
4895;SDS011;2463;49.948;8.472;2022-10-16T01:25:27;93.25;;;4.88;;
4895;SDS011;2463;49.948;8.472;2022-10-16T01:28:16;91.05;;;4.38;;
4895;SDS011;2463;49.948;8.472;2022-10-16T01:30:47;89.88;;;4.55;;
4895;SDS011;2463;49.948;8.472;2022-10-16T01:33:21;91.68;;;4.55;;
4895;SDS011;2463;49.948;8.472;2022-10-16T01:35:53;89.72;;;4.70;;
4895;SDS011;2463;49.948;8.472;2022-10-16T01:38:32;94.07;;;4.95;;
4895;SDS011;2463;49.948;8.472;2022-10-16T01:41:04;89.50;;;4.32;;
4895;SDS011;2463;49.948;8.472;2022-10-16T01:43:38;90.47;;;4.30;;
4895;SDS011;2463;49.948;8.472;2022-10-16T01:46:09;90.00;;;4.40;;
4895;SDS011;2463;49.948;8.472;2022-10-16T01:48:39;91.68;;;4.50;;
4895;SDS011;2463;49.948;8.472;2022-10-16T01:51:09;89.75;;;4.25;;
4895;SDS011;2463;49.948;8.472;2022-10-16T01:53:39;92.97;;;4.35;;
4895;SDS011;2463;49.948;8.472;2022-10-16T01:56:08;90.10;;;4.43;;
4895;SDS011;2463;49.948;8.472;2022-10-16T01:58:39;89.85;;;4.35;;
4895;SDS011;2463;49.948;8.472;2022-10-16T02:01:10;91.45;;;4.50;;
4895;SDS011;2463;49.948;8.472;2022-10-16T02:03:42;91.22;;;4.35;;
4895;SDS011;2463;49.948;8.472;2022-10-16T02:06:12;90.35;;;4.70;;
4895;SDS011;2463;49.948;8.472;2022-10-16T02:08:39;89.28;;;4.05;;
4895;SDS011;2463;49.948;8.472;2022-10-16T02:11:10;92.20;;;4.25;;
4895;SDS011;2463;49.948;8.472;2022-10-16T02:13:45;89.32;;;4.38;;
4895;SDS011;2463;49.948;8.472;2022-10-16T02:16:16;90.80;;;4.20;;
4895;SDS011;2463;49.948;8.472;2022-10-16T02:18:43;90.90;;;4.38;;
4895;SDS011;2463;49.948;8.472;2022-10-16T02:21:19;91.13;;;4.57;;
4895;SDS011;2463;49.948;8.472;2022-10-16T02:23:59;90.53;;;4.32;;
4895;SDS011;2463;49.948;8.472;2022-10-16T02:26:30;90.03;;;4.40;;
4895;SDS011;2463;49.948;8.472;2022-10-16T02:29:08;89.72;;;4.18;;
4895;SDS011;2463;49.948;8.472;2022-10-16T02:31:38;89.75;;;4.20;;
4895;SDS011;2463;49.948;8.472;2022-10-16T02:34:08;89.65;;;4.00;;
4895;SDS011;2463;49.948;8.472;2022-10-16T02:36:38;94.05;;;4.75;;
4895;SDS011;2463;49.948;8.472;2022-10-16T02:39:06;92.55;;;4.40;;
4895;SDS011;2463;49.948;8.472;2022-10-16T02:41:34;90.18;;;4.50;;
4895;SDS011;2463;49.948;8.472;2022-10-16T02:44:00;89.47;;;4.13;;
4895;SDS011;2463;49.948;8.472;2022-10-16T02:46:27;89.38;;;4.30;;
4895;SDS011;2463;49.948;8.472;2022-10-16T02:48:54;89.20;;;4.20;;
4895;SDS011;2463;49.948;8.472;2022-10-16T02:51:20;91.07;;;4.00;;
4895;SDS011;2463;49.948;8.472;2022-10-16T02:53:47;90.70;;;4.22;;
4895;SDS011;2463;49.948;8.472;2022-10-16T02:56:14;89.28;;;4.10;;
4895;SDS011;2463;49.948;8.472;2022-10-16T02:58:40;89.05;;;3.90;;
4895;SDS011;2463;49.948;8.472;2022-10-16T03:01:07;89.43;;;4.22;;
4895;SDS011;2463;49.948;8.472;2022-10-16T03:03:34;91.40;;;4.60;;
4895;SDS011;2463;49.948;8.472;2022-10-16T03:06:01;89.53;;;4.20;;
4895;SDS011;2463;49.948;8.472;2022-10-16T03:08:28;92.35;;;4.35;;
4895;SDS011;2463;49.948;8.472;2022-10-16T03:10:56;90.20;;;4.20;;
4895;SDS011;2463;49.948;8.472;2022-10-16T03:13:22;89.88;;;4.10;;
4895;SDS011;2463;49.948;8.472;2022-10-16T03:15:49;91.60;;;4.30;;
4895;SDS011;2463;49.948;8.472;2022-10-16T03:18:16;89.82;;;4.13;;
4895;SDS011;2463;49.948;8.472;2022-10-16T03:20:43;92.78;;;4.47;;
4895;SDS011;2463;49.948;8.472;2022-10-16T03:23:10;89.97;;;4.20;;
4895;SDS011;2463;49.948;8.472;2022-10-16T03:25:37;92.05;;;4.20;;
4895;SDS011;2463;49.948;8.472;2022-10-16T03:28:03;91.07;;;4.32;;
4895;SDS011;2463;49.948;8.472;2022-10-16T03:30:30;91.13;;;4.47;;
4895;SDS011;2463;49.948;8.472;2022-10-16T03:32:57;90.13;;;4.50;;
4895;SDS011;2463;49.948;8.472;2022-10-16T03:35:24;93.60;;;4.18;;
4895;SDS011;2463;49.948;8.472;2022-10-16T03:37:51;89.32;;;4.05;;
4895;SDS011;2463;49.948;8.472;2022-10-16T03:40:18;89.32;;;4.00;;
4895;SDS011;2463;49.948;8.472;2022-10-16T03:42:44;89.53;;;4.10;;
4895;SDS011;2463;49.948;8.472;2022-10-16T03:45:11;91.28;;;4.20;;
4895;SDS011;2463;49.948;8.472;2022-10-16T03:47:38;93.63;;;4.22;;
4895;SDS011;2463;49.948;8.472;2022-10-16T03:50:05;90.88;;;4.40;;
4895;SDS011;2463;49.948;8.472;2022-10-16T03:52:32;90.22;;;4.05;;
4895;SDS011;2463;49.948;8.472;2022-10-16T03:54:59;90.70;;;4.38;;
4895;SDS011;2463;49.948;8.472;2022-10-16T03:57:25;89.63;;;4.03;;
4895;SDS011;2463;49.948;8.472;2022-10-16T03:59:52;89.93;;;4.38;;
4895;SDS011;2463;49.948;8.472;2022-10-16T04:02:19;89.90;;;4.43;;
4895;SDS011;2463;49.948;8.472;2022-10-16T04:04:46;91.13;;;4.50;;
4895;SDS011;2463;49.948;8.472;2022-10-16T04:07:12;90.07;;;4.50;;
4895;SDS011;2463;49.948;8.472;2022-10-16T04:09:39;92.60;;;4.40;;
4895;SDS011;2463;49.948;8.472;2022-10-16T04:12:06;91.63;;;4.28;;
4895;SDS011;2463;49.948;8.472;2022-10-16T04:14:32;92.38;;;4.18;;
4895;SDS011;2463;49.948;8.472;2022-10-16T04:17:00;89.65;;;4.20;;
4895;SDS011;2463;49.948;8.472;2022-10-16T04:19:26;90.13;;;4.20;;
4895;SDS011;2463;49.948;8.472;2022-10-16T04:21:53;89.30;;;4.00;;
4895;SDS011;2463;49.948;8.472;2022-10-16T04:24:20;88.93;;;4.10;;
4895;SDS011;2463;49.948;8.472;2022-10-16T04:26:46;89.00;;;3.83;;
4895;SDS011;2463;49.948;8.472;2022-10-16T04:29:13;90.82;;;4.05;;
4895;SDS011;2463;49.948;8.472;2022-10-16T04:31:39;89.25;;;4.00;;
4895;SDS011;2463;49.948;8.472;2022-10-16T04:34:06;90.20;;;4.20;;
4895;SDS011;2463;49.948;8.472;2022-10-16T04:36:33;92.00;;;4.63;;
4895;SDS011;2463;49.948;8.472;2022-10-16T04:38:59;89.78;;;4.10;;
4895;SDS011;2463;49.948;8.472;2022-10-16T04:41:26;90.40;;;4.18;;
4895;SDS011;2463;49.948;8.472;2022-10-16T04:43:53;89.13;;;4.32;;
4895;SDS011;2463;49.948;8.472;2022-10-16T04:46:19;89.35;;;4.05;;
4895;SDS011;2463;49.948;8.472;2022-10-16T04:48:46;89.97;;;4.20;;
4895;SDS011;2463;49.948;8.472;2022-10-16T04:51:13;89.28;;;4.10;;
4895;SDS011;2463;49.948;8.472;2022-10-16T04:53:39;89.22;;;3.70;;
4895;SDS011;2463;49.948;8.472;2022-10-16T04:56:06;91.53;;;4.20;;
4895;SDS011;2463;49.948;8.472;2022-10-16T04:58:33;91.72;;;4.38;;
4895;SDS011;2463;49.948;8.472;2022-10-16T05:00:59;91.28;;;4.28;;
4895;SDS011;2463;49.948;8.472;2022-10-16T05:03:26;88.78;;;3.88;;
4895;SDS011;2463;49.948;8.472;2022-10-16T05:05:53;89.03;;;4.00;;
4895;SDS011;2463;49.948;8.472;2022-10-16T05:08:19;90.38;;;4.13;;
4895;SDS011;2463;49.948;8.472;2022-10-16T05:10:46;89.53;;;4.18;;
4895;SDS011;2463;49.948;8.472;2022-10-16T05:13:13;90.75;;;3.95;;
4895;SDS011;2463;49.948;8.472;2022-10-16T05:15:40;91.75;;;4.50;;
4895;SDS011;2463;49.948;8.472;2022-10-16T05:18:06;90.03;;;3.90;;
4895;SDS011;2463;49.948;8.472;2022-10-16T05:20:34;89.68;;;4.13;;
4895;SDS011;2463;49.948;8.472;2022-10-16T05:23:01;92.88;;;4.10;;
4895;SDS011;2463;49.948;8.472;2022-10-16T05:25:27;90.97;;;4.20;;
4895;SDS011;2463;49.948;8.472;2022-10-16T05:27:54;89.35;;;4.15;;
4895;SDS011;2463;49.948;8.472;2022-10-16T05:30:21;89.05;;;3.83;;
4895;SDS011;2463;49.948;8.472;2022-10-16T05:32:48;88.78;;;4.00;;
4895;SDS011;2463;49.948;8.472;2022-10-16T05:35:16;88.93;;;4.03;;
4895;SDS011;2463;49.948;8.472;2022-10-16T05:37:43;90.25;;;4.20;;
4895;SDS011;2463;49.948;8.472;2022-10-16T05:40:11;88.88;;;3.75;;
4895;SDS011;2463;49.948;8.472;2022-10-16T05:42:39;89.07;;;3.95;;
4895;SDS011;2463;49.948;8.472;2022-10-16T05:45:06;91.70;;;4.38;;
4895;SDS011;2463;49.948;8.472;2022-10-16T05:47:35;91.80;;;4.03;;
4895;SDS011;2463;49.948;8.472;2022-10-16T05:50:02;89.82;;;4.28;;
4895;SDS011;2463;49.948;8.472;2022-10-16T05:52:30;90.85;;;4.35;;
4895;SDS011;2463;49.948;8.472;2022-10-16T05:54:57;89.80;;;4.20;;
4895;SDS011;2463;49.948;8.472;2022-10-16T05:57:23;90.05;;;4.10;;
4895;SDS011;2463;49.948;8.472;2022-10-16T05:59:51;89.97;;;4.38;;
4895;SDS011;2463;49.948;8.472;2022-10-16T06:02:17;89.70;;;4.35;;
4895;SDS011;2463;49.948;8.472;2022-10-16T06:04:44;91.47;;;4.10;;
4895;SDS011;2463;49.948;8.472;2022-10-16T06:07:11;91.32;;;4.70;;
4895;SDS011;2463;49.948;8.472;2022-10-16T06:09:37;90.05;;;4.53;;
4895;SDS011;2463;49.948;8.472;2022-10-16T06:12:04;89.03;;;4.10;;
4895;SDS011;2463;49.948;8.472;2022-10-16T06:14:31;90.05;;;4.50;;
4895;SDS011;2463;49.948;8.472;2022-10-16T06:16:57;89.57;;;4.30;;
4895;SDS011;2463;49.948;8.472;2022-10-16T06:19:24;89.03;;;3.97;;
4895;SDS011;2463;49.948;8.472;2022-10-16T06:21:51;89.68;;;4.30;;
4895;SDS011;2463;49.948;8.472;2022-10-16T06:24:17;89.97;;;4.35;;
4895;SDS011;2463;49.948;8.472;2022-10-16T06:26:44;90.68;;;4.25;;
4895;SDS011;2463;49.948;8.472;2022-10-16T06:29:11;89.32;;;4.20;;
4895;SDS011;2463;49.948;8.472;2022-10-16T06:31:37;96.18;;;4.35;;
4895;SDS011;2463;49.948;8.472;2022-10-16T06:34:04;92.10;;;4.10;;
4895;SDS011;2463;49.948;8.472;2022-10-16T06:36:35;89.57;;;4.30;;
4895;SDS011;2463;49.948;8.472;2022-10-16T06:39:02;89.70;;;3.85;;
4895;SDS011;2463;49.948;8.472;2022-10-16T06:41:29;91.75;;;4.90;;
4895;SDS011;2463;49.948;8.472;2022-10-16T06:43:56;89.72;;;4.45;;
4895;SDS011;2463;49.948;8.472;2022-10-16T06:46:23;89.15;;;4.30;;
4895;SDS011;2463;49.948;8.472;2022-10-16T06:48:50;90.88;;;4.68;;
4895;SDS011;2463;49.948;8.472;2022-10-16T06:51:19;90.40;;;4.68;;
4895;SDS011;2463;49.948;8.472;2022-10-16T06:53:48;92.88;;;5.60;;
4895;SDS011;2463;49.948;8.472;2022-10-16T06:56:29;91.95;;;5.78;;
4895;SDS011;2463;49.948;8.472;2022-10-16T06:58:57;92.38;;;5.20;;
4895;SDS011;2463;49.948;8.472;2022-10-16T07:01:25;93.07;;;5.32;;
4895;SDS011;2463;49.948;8.472;2022-10-16T07:03:52;90.63;;;5.15;;
4895;SDS011;2463;49.948;8.472;2022-10-16T07:06:20;92.05;;;5.95;;
4895;SDS011;2463;49.948;8.472;2022-10-16T07:08:49;92.32;;;5.32;;
4895;SDS011;2463;49.948;8.472;2022-10-16T07:11:16;91.70;;;5.75;;
4895;SDS011;2463;49.948;8.472;2022-10-16T07:13:45;92.35;;;5.28;;
4895;SDS011;2463;49.948;8.472;2022-10-16T07:16:21;90.78;;;5.30;;
4895;SDS011;2463;49.948;8.472;2022-10-16T07:18:55;101.47;;;5.78;;
4895;SDS011;2463;49.948;8.472;2022-10-16T07:21:28;90.50;;;5.50;;
4895;SDS011;2463;49.948;8.472;2022-10-16T07:23:57;95.55;;;5.80;;
4895;SDS011;2463;49.948;8.472;2022-10-16T07:26:27;96.70;;;6.35;;
4895;SDS011;2463;49.948;8.472;2022-10-16T07:28:58;91.57;;;5.50;;
4895;SDS011;2463;49.948;8.472;2022-10-16T07:31:25;95.10;;;6.35;;
4895;SDS011;2463;49.948;8.472;2022-10-16T07:33:52;89.93;;;5.30;;
4895;SDS011;2463;49.948;8.472;2022-10-16T07:36:20;92.05;;;6.47;;
4895;SDS011;2463;49.948;8.472;2022-10-16T07:38:47;96.88;;;6.50;;
4895;SDS011;2463;49.948;8.472;2022-10-16T07:41:15;97.50;;;7.35;;
4895;SDS011;2463;49.948;8.472;2022-10-16T07:43:49;92.70;;;6.75;;
4895;SDS011;2463;49.948;8.472;2022-10-16T07:46:18;91.82;;;6.25;;
4895;SDS011;2463;49.948;8.472;2022-10-16T07:48:46;92.95;;;6.57;;
4895;SDS011;2463;49.948;8.472;2022-10-16T07:51:15;94.38;;;8.18;;
4895;SDS011;2463;49.948;8.472;2022-10-16T07:53:46;93.13;;;6.50;;
4895;SDS011;2463;49.948;8.472;2022-10-16T07:56:14;93.80;;;6.57;;
4895;SDS011;2463;49.948;8.472;2022-10-16T07:58:42;98.88;;;6.90;;
4895;SDS011;2463;49.948;8.472;2022-10-16T08:01:10;91.65;;;6.00;;
4895;SDS011;2463;49.948;8.472;2022-10-16T08:03:41;91.03;;;5.88;;
4895;SDS011;2463;49.948;8.472;2022-10-16T08:06:09;93.25;;;6.53;;
4895;SDS011;2463;49.948;8.472;2022-10-16T08:08:36;91.93;;;6.45;;
4895;SDS011;2463;49.948;8.472;2022-10-16T08:11:02;90.47;;;5.45;;
4895;SDS011;2463;49.948;8.472;2022-10-16T08:13:30;92.28;;;6.30;;
4895;SDS011;2463;49.948;8.472;2022-10-16T08:15:57;100.57;;;6.05;;
4895;SDS011;2463;49.948;8.472;2022-10-16T08:18:24;97.55;;;6.15;;
4895;SDS011;2463;49.948;8.472;2022-10-16T08:20:57;92.53;;;5.78;;
4895;SDS011;2463;49.948;8.472;2022-10-16T08:23:26;92.03;;;6.25;;
4895;SDS011;2463;49.948;8.472;2022-10-16T08:25:54;99.00;;;6.35;;
4895;SDS011;2463;49.948;8.472;2022-10-16T08:28:21;92.53;;;6.13;;
4895;SDS011;2463;49.948;8.472;2022-10-16T08:30:49;91.13;;;5.90;;
4895;SDS011;2463;49.948;8.472;2022-10-16T08:33:15;92.55;;;5.10;;
4895;SDS011;2463;49.948;8.472;2022-10-16T08:35:42;90.72;;;5.47;;
4895;SDS011;2463;49.948;8.472;2022-10-16T08:38:09;90.75;;;5.47;;
4895;SDS011;2463;49.948;8.472;2022-10-16T08:40:36;90.93;;;5.93;;
4895;SDS011;2463;49.948;8.472;2022-10-16T08:48:48;95.30;;;5.53;;
4895;SDS011;2463;49.948;8.472;2022-10-16T08:51:26;91.97;;;5.35;;
4895;SDS011;2463;49.948;8.472;2022-10-16T08:54:08;94.45;;;6.20;;
4895;SDS011;2463;49.948;8.472;2022-10-16T08:56:47;93.15;;;5.70;;
4895;SDS011;2463;49.948;8.472;2022-10-16T08:59:14;94.47;;;6.22;;
4895;SDS011;2463;49.948;8.472;2022-10-16T09:01:44;89.13;;;5.22;;
4895;SDS011;2463;49.948;8.472;2022-10-16T09:07:20;90.30;;;5.93;;
4895;SDS011;2463;49.948;8.472;2022-10-16T09:13:11;93.82;;;5.63;;
4895;SDS011;2463;49.948;8.472;2022-10-16T09:16:14;91.55;;;6.20;;
4895;SDS011;2463;49.948;8.472;2022-10-16T09:19:09;92.90;;;6.50;;
4895;SDS011;2463;49.948;8.472;2022-10-16T09:21:57;90.57;;;5.90;;
4895;SDS011;2463;49.948;8.472;2022-10-16T09:24:29;94.20;;;6.15;;
4895;SDS011;2463;49.948;8.472;2022-10-16T09:26:56;90.78;;;6.43;;
4895;SDS011;2463;49.948;8.472;2022-10-16T09:29:23;92.28;;;6.30;;
4895;SDS011;2463;49.948;8.472;2022-10-16T09:31:51;95.55;;;5.95;;
4895;SDS011;2463;49.948;8.472;2022-10-16T09:36:54;92.18;;;6.15;;
4895;SDS011;2463;49.948;8.472;2022-10-16T09:39:23;96.22;;;6.43;;
4895;SDS011;2463;49.948;8.472;2022-10-16T09:41:50;94.63;;;5.90;;
4895;SDS011;2463;49.948;8.472;2022-10-16T09:44:22;96.10;;;6.72;;
4895;SDS011;2463;49.948;8.472;2022-10-16T09:47:00;92.47;;;6.85;;
4895;SDS011;2463;49.948;8.472;2022-10-16T09:49:27;91.63;;;6.80;;
4895;SDS011;2463;49.948;8.472;2022-10-16T09:52:04;89.28;;;6.60;;
4895;SDS011;2463;49.948;8.472;2022-10-16T09:54:37;91.47;;;7.55;;
4895;SDS011;2463;49.948;8.472;2022-10-16T09:57:04;92.57;;;7.55;;
4895;SDS011;2463;49.948;8.472;2022-10-16T09:59:48;94.68;;;7.88;;
4895;SDS011;2463;49.948;8.472;2022-10-16T10:02:23;94.93;;;9.18;;
4895;SDS011;2463;49.948;8.472;2022-10-16T10:04:56;93.50;;;8.55;;
4895;SDS011;2463;49.948;8.472;2022-10-16T10:07:24;94.28;;;7.75;;
4895;SDS011;2463;49.948;8.472;2022-10-16T10:10:03;92.82;;;7.53;;
4895;SDS011;2463;49.948;8.472;2022-10-16T10:12:32;91.60;;;7.18;;
4895;SDS011;2463;49.948;8.472;2022-10-16T10:15:06;90.57;;;6.43;;
4895;SDS011;2463;49.948;8.472;2022-10-16T10:17:45;91.47;;;6.80;;
4895;SDS011;2463;49.948;8.472;2022-10-16T10:22:51;91.88;;;6.35;;
4895;SDS011;2463;49.948;8.472;2022-10-16T10:33:45;88.15;;;5.85;;
4895;SDS011;2463;49.948;8.472;2022-10-16T10:44:32;95.38;;;6.75;;
4895;SDS011;2463;49.948;8.472;2022-10-16T10:53:09;90.90;;;6.00;;
4895;SDS011;2463;49.948;8.472;2022-10-16T11:07:39;88.05;;;5.30;;
4895;SDS011;2463;49.948;8.472;2022-10-16T11:10:42;87.38;;;5.10;;
4895;SDS011;2463;49.948;8.472;2022-10-16T11:13:20;85.78;;;4.88;;
4895;SDS011;2463;49.948;8.472;2022-10-16T11:15:50;86.78;;;5.05;;
4895;SDS011;2463;49.948;8.472;2022-10-16T11:18:23;85.53;;;4.60;;
4895;SDS011;2463;49.948;8.472;2022-10-16T11:21:06;84.93;;;4.40;;
4895;SDS011;2463;49.948;8.472;2022-10-16T11:26:23;87.93;;;4.80;;
4895;SDS011;2463;49.948;8.472;2022-10-16T11:28:56;85.63;;;4.32;;
4895;SDS011;2463;49.948;8.472;2022-10-16T11:31:36;88.40;;;4.40;;
4895;SDS011;2463;49.948;8.472;2022-10-16T11:34:13;86.00;;;4.40;;
4895;SDS011;2463;49.948;8.472;2022-10-16T11:36:52;87.50;;;4.80;;
4895;SDS011;2463;49.948;8.472;2022-10-16T11:39:37;86.95;;;4.32;;
4895;SDS011;2463;49.948;8.472;2022-10-16T11:42:08;86.05;;;4.53;;
4895;SDS011;2463;49.948;8.472;2022-10-16T11:52:44;80.27;;;2.60;;
4895;SDS011;2463;49.948;8.472;2022-10-16T11:55:28;81.13;;;2.60;;
4895;SDS011;2463;49.948;8.472;2022-10-16T11:58:25;83.13;;;2.93;;
4895;SDS011;2463;49.948;8.472;2022-10-16T12:01:15;79.80;;;2.60;;
4895;SDS011;2463;49.948;8.472;2022-10-16T12:07:08;77.03;;;2.27;;
4895;SDS011;2463;49.948;8.472;2022-10-16T12:09:40;76.47;;;2.07;;
4895;SDS011;2463;49.948;8.472;2022-10-16T12:12:24;76.67;;;2.30;;
4895;SDS011;2463;49.948;8.472;2022-10-16T12:15:00;76.67;;;2.03;;
4895;SDS011;2463;49.948;8.472;2022-10-16T12:17:47;76.90;;;2.23;;
4895;SDS011;2463;49.948;8.472;2022-10-16T12:22:49;76.23;;;2.10;;
4895;SDS011;2463;49.948;8.472;2022-10-16T12:27:53;75.60;;;1.70;;
4895;SDS011;2463;49.948;8.472;2022-10-16T12:30:27;75.90;;;2.00;;
4895;SDS011;2463;49.948;8.472;2022-10-16T12:33:03;75.83;;;2.00;;
4895;SDS011;2463;49.948;8.472;2022-10-16T12:35:33;76.87;;;2.20;;
4895;SDS011;2463;49.948;8.472;2022-10-16T12:38:16;76.77;;;2.33;;
4895;SDS011;2463;49.948;8.472;2022-10-16T12:40:43;78.33;;;2.40;;
4895;SDS011;2463;49.948;8.472;2022-10-16T12:46:01;79.87;;;2.50;;
4895;SDS011;2463;49.948;8.472;2022-10-16T12:48:47;80.50;;;2.53;;
4895;SDS011;2463;49.948;8.472;2022-10-16T12:53:59;80.77;;;2.60;;
4895;SDS011;2463;49.948;8.472;2022-10-16T12:56:33;81.87;;;3.10;;
4895;SDS011;2463;49.948;8.472;2022-10-16T12:59:15;81.83;;;3.10;;
4895;SDS011;2463;49.948;8.472;2022-10-16T13:02:06;82.87;;;3.20;;
4895;SDS011;2463;49.948;8.472;2022-10-16T13:15:33;85.32;;;3.90;;
4895;SDS011;2463;49.948;8.472;2022-10-16T13:29:10;85.90;;;4.00;;
4895;SDS011;2463;49.948;8.472;2022-10-16T13:31:39;86.25;;;3.85;;
4895;SDS011;2463;49.948;8.472;2022-10-16T13:34:06;84.35;;;3.55;;
4895;SDS011;2463;49.948;8.472;2022-10-16T13:36:44;88.50;;;4.15;;
4895;SDS011;2463;49.948;8.472;2022-10-16T13:39:14;85.78;;;4.43;;
4895;SDS011;2463;49.948;8.472;2022-10-16T13:41:57;85.60;;;4.07;;
4895;SDS011;2463;49.948;8.472;2022-10-16T13:44:44;86.63;;;4.40;;
4895;SDS011;2463;49.948;8.472;2022-10-16T13:47:15;88.05;;;4.25;;
4895;SDS011;2463;49.948;8.472;2022-10-16T13:49:44;87.32;;;4.10;;
4895;SDS011;2463;49.948;8.472;2022-10-16T13:52:16;90.32;;;4.70;;
4895;SDS011;2463;49.948;8.472;2022-10-16T13:54:47;93.10;;;6.65;;
4895;SDS011;2463;49.948;8.472;2022-10-16T13:57:14;88.93;;;5.40;;
4895;SDS011;2463;49.948;8.472;2022-10-16T13:59:52;87.05;;;4.40;;
4895;SDS011;2463;49.948;8.472;2022-10-16T14:02:30;86.85;;;4.32;;
4895;SDS011;2463;49.948;8.472;2022-10-16T14:05:02;95.97;;;5.88;;
4895;SDS011;2463;49.948;8.472;2022-10-16T14:07:31;86.97;;;4.38;;
4895;SDS011;2463;49.948;8.472;2022-10-16T14:10:03;87.50;;;5.60;;
4895;SDS011;2463;49.948;8.472;2022-10-16T14:12:53;88.13;;;4.55;;
4895;SDS011;2463;49.948;8.472;2022-10-16T14:15:21;87.97;;;4.57;;
4895;SDS011;2463;49.948;8.472;2022-10-16T14:17:49;89.40;;;4.32;;
4895;SDS011;2463;49.948;8.472;2022-10-16T14:20:17;87.00;;;4.57;;
4895;SDS011;2463;49.948;8.472;2022-10-16T14:22:44;92.13;;;5.30;;
4895;SDS011;2463;49.948;8.472;2022-10-16T14:27:45;87.75;;;4.30;;
4895;SDS011;2463;49.948;8.472;2022-10-16T14:30:33;87.85;;;4.53;;
4895;SDS011;2463;49.948;8.472;2022-10-16T14:33:03;87.63;;;4.75;;
4895;SDS011;2463;49.948;8.472;2022-10-16T14:35:46;90.03;;;4.60;;
4895;SDS011;2463;49.948;8.472;2022-10-16T14:38:24;87.03;;;4.15;;
4895;SDS011;2463;49.948;8.472;2022-10-16T14:40:51;86.78;;;4.20;;
4895;SDS011;2463;49.948;8.472;2022-10-16T14:43:22;87.25;;;4.40;;
4895;SDS011;2463;49.948;8.472;2022-10-16T14:46:19;87.10;;;4.30;;
4895;SDS011;2463;49.948;8.472;2022-10-16T14:48:51;86.95;;;4.63;;
4895;SDS011;2463;49.948;8.472;2022-10-16T14:51:22;86.65;;;4.40;;
4895;SDS011;2463;49.948;8.472;2022-10-16T14:53:49;86.60;;;4.55;;
4895;SDS011;2463;49.948;8.472;2022-10-16T14:56:17;88.30;;;5.05;;
4895;SDS011;2463;49.948;8.472;2022-10-16T14:58:45;86.47;;;4.82;;
4895;SDS011;2463;49.948;8.472;2022-10-16T15:01:12;93.07;;;4.70;;
4895;SDS011;2463;49.948;8.472;2022-10-16T15:03:39;86.35;;;4.50;;
4895;SDS011;2463;49.948;8.472;2022-10-16T15:06:12;88.78;;;4.63;;
4895;SDS011;2463;49.948;8.472;2022-10-16T15:08:40;87.13;;;4.40;;
4895;SDS011;2463;49.948;8.472;2022-10-16T15:11:26;86.72;;;4.55;;
4895;SDS011;2463;49.948;8.472;2022-10-16T15:13:52;89.68;;;4.60;;
4895;SDS011;2463;49.948;8.472;2022-10-16T15:16:19;88.80;;;4.65;;
4895;SDS011;2463;49.948;8.472;2022-10-16T15:18:46;87.63;;;4.90;;
4895;SDS011;2463;49.948;8.472;2022-10-16T15:21:28;86.72;;;4.75;;
4895;SDS011;2463;49.948;8.472;2022-10-16T15:23:56;91.53;;;4.72;;
4895;SDS011;2463;49.948;8.472;2022-10-16T15:26:25;87.30;;;4.55;;
4895;SDS011;2463;49.948;8.472;2022-10-16T15:28:53;88.00;;;4.47;;
4895;SDS011;2463;49.948;8.472;2022-10-16T15:31:20;86.05;;;4.53;;
4895;SDS011;2463;49.948;8.472;2022-10-16T15:33:51;87.88;;;4.95;;
4895;SDS011;2463;49.948;8.472;2022-10-16T15:36:28;87.90;;;4.43;;
4895;SDS011;2463;49.948;8.472;2022-10-16T15:38:56;89.50;;;5.22;;
4895;SDS011;2463;49.948;8.472;2022-10-16T15:41:23;93.40;;;6.10;;
4895;SDS011;2463;49.948;8.472;2022-10-16T15:43:49;87.80;;;4.78;;
4895;SDS011;2463;49.948;8.472;2022-10-16T15:46:18;94.30;;;5.00;;
4895;SDS011;2463;49.948;8.472;2022-10-16T15:48:46;87.15;;;4.82;;
4895;SDS011;2463;49.948;8.472;2022-10-16T15:51:14;87.68;;;4.65;;
4895;SDS011;2463;49.948;8.472;2022-10-16T15:53:41;87.78;;;4.60;;
4895;SDS011;2463;49.948;8.472;2022-10-16T15:56:08;87.60;;;4.75;;
4895;SDS011;2463;49.948;8.472;2022-10-16T15:58:36;87.07;;;4.53;;
4895;SDS011;2463;49.948;8.472;2022-10-16T16:01:04;90.30;;;4.70;;
4895;SDS011;2463;49.948;8.472;2022-10-16T16:03:32;90.45;;;4.60;;
4895;SDS011;2463;49.948;8.472;2022-10-16T16:06:03;90.00;;;5.10;;
4895;SDS011;2463;49.948;8.472;2022-10-16T16:08:31;93.40;;;5.07;;
4895;SDS011;2463;49.948;8.472;2022-10-16T16:11:03;91.00;;;5.40;;
4895;SDS011;2463;49.948;8.472;2022-10-16T16:13:32;88.32;;;4.55;;
4895;SDS011;2463;49.948;8.472;2022-10-16T16:15:59;96.38;;;5.20;;
4895;SDS011;2463;49.948;8.472;2022-10-16T16:18:26;88.35;;;4.53;;
4895;SDS011;2463;49.948;8.472;2022-10-16T16:20:54;89.28;;;5.18;;
4895;SDS011;2463;49.948;8.472;2022-10-16T16:23:21;88.95;;;5.15;;
4895;SDS011;2463;49.948;8.472;2022-10-16T16:28:37;86.47;;;4.85;;
4895;SDS011;2463;49.948;8.472;2022-10-16T16:31:05;89.70;;;4.93;;
4895;SDS011;2463;49.948;8.472;2022-10-16T16:33:32;91.70;;;4.97;;
4895;SDS011;2463;49.948;8.472;2022-10-16T16:36:00;95.93;;;5.18;;
4895;SDS011;2463;49.948;8.472;2022-10-16T16:38:29;89.38;;;4.50;;
4895;SDS011;2463;49.948;8.472;2022-10-16T16:40:56;95.32;;;5.40;;
4895;SDS011;2463;49.948;8.472;2022-10-16T16:43:24;88.43;;;4.82;;
4895;SDS011;2463;49.948;8.472;2022-10-16T16:45:52;92.68;;;4.93;;
4895;SDS011;2463;49.948;8.472;2022-10-16T16:48:20;93.55;;;5.60;;
4895;SDS011;2463;49.948;8.472;2022-10-16T16:50:47;98.88;;;4.70;;
4895;SDS011;2463;49.948;8.472;2022-10-16T16:53:14;93.20;;;6.05;;
4895;SDS011;2463;49.948;8.472;2022-10-16T16:55:41;94.10;;;6.43;;
4895;SDS011;2463;49.948;8.472;2022-10-16T16:58:08;89.60;;;5.47;;
4895;SDS011;2463;49.948;8.472;2022-10-16T17:00:35;96.28;;;5.63;;
4895;SDS011;2463;49.948;8.472;2022-10-16T17:03:01;95.88;;;5.70;;
4895;SDS011;2463;49.948;8.472;2022-10-16T17:05:28;89.68;;;5.00;;
4895;SDS011;2463;49.948;8.472;2022-10-16T17:07:55;93.18;;;5.15;;
4895;SDS011;2463;49.948;8.472;2022-10-16T17:10:22;89.43;;;5.05;;
4895;SDS011;2463;49.948;8.472;2022-10-16T17:12:48;88.68;;;4.97;;
4895;SDS011;2463;49.948;8.472;2022-10-16T17:15:15;91.47;;;5.90;;